Terminal Aerodrome Forecast
Issued by NWS

Home | Current Version | Previous Version | Graphics & Text | Print | Product List | Glossary On
Versions: 1 2 3 4 5 6 7 8 9 10 11 12
000
FTUS43 KMPX 211749
TAFRNH
TAF
KRNH 211749Z 2118/2218 16010KT P6SM FEW050 FEW120
     FM220200 15007KT P6SM SCT050 BKN120
     FM220800 27005KT P6SM SCT120
     FM221100 34005KT P6SM SCT150=

USA.gov is the U.S. government's official web portal to all federal, state and local government web resources and services.